Terminal Aerodrome Forecast
Issued by NWS

Home | Current Version | Previous Version | Text Only | Print | Product List | Glossary On
Versions: 1 2 3 4 5 6 7 8 9 10 11 12 13 14 15 16 17 18 19 20
000
FTUS41 KGYX 180538
TAFHIE
TAF
KHIE 180538Z 1806/1906 00000KT P6SM BKN070 BKN090
     FM181200 30004KT P6SM BKN050 OVC070
     FM181900 32010KT P6SM SCT060 BKN090
     FM190000 VRB03KT P6SM FEW080=

USA.gov is the U.S. government's official web portal to all federal, state and local government web resources and services.